createdAt,value
2022-08-10T00:01:15.307Z,99642.42
2022-08-10T00:03:48.328Z,99647.69
2022-08-10T00:06:21.461Z,99647.69
2022-08-10T00:08:54.732Z,99645.95
2022-08-10T00:11:28.511Z,99653.88
2022-08-10T00:14:01.632Z,99650.37
2022-08-10T00:16:35.001Z,99651.25
2022-08-10T00:19:08.089Z,99651.27
2022-08-10T00:21:44.583Z,99654.80
2022-08-10T00:24:17.850Z,99653.06
2022-08-10T00:27:58.641Z,99653.08
2022-08-10T00:29:25.916Z,99648.71
2022-08-10T00:31:59.496Z,99654.84
2022-08-10T00:34:34.794Z,99653.08
2022-08-10T00:37:08.042Z,99657.47
2022-08-10T00:39:41.649Z,99656.59
2022-08-10T00:42:17.513Z,99649.56
2022-08-10T00:44:53.697Z,99646.95
2022-08-10T00:47:36.943Z,99646.09
2022-08-10T00:50:01.749Z,99647.88
2022-08-10T00:52:36.737Z,99644.38
2022-08-10T00:55:11.126Z,99644.41
2022-08-10T00:57:45.288Z,99647.05
2022-08-10T01:00:22.022Z,99650.58
2022-08-10T01:02:55.382Z,99650.59
2022-08-10T01:05:29.235Z,99653.23
2022-08-10T01:08:21.261Z,99651.48
2022-08-10T01:11:00.084Z,99652.36
2022-08-10T01:13:37.019Z,99657.62
2022-08-10T01:16:14.834Z,99657.60
2022-08-10T01:18:49.063Z,99647.97
2022-08-10T01:21:54.283Z,99653.21
2022-08-10T01:24:41.267Z,99660.25
2022-08-10T01:27:28.346Z,99654.12
2022-08-10T01:30:08.562Z,99655.04
2022-08-10T01:32:51.785Z,99648.03
2022-08-10T01:35:28.909Z,99646.31
2022-08-10T01:40:50.219Z,99649.75
2022-08-10T01:43:25.153Z,99651.61
2022-08-10T01:46:01.827Z,99650.70
2022-08-10T01:48:37.378Z,99652.47
2022-08-10T01:51:16.843Z,99665.64
2022-08-10T01:53:55.350Z,99651.61
2022-08-10T01:56:31.945Z,99663.86
2022-08-10T02:01:55.878Z,99670.81
2022-08-10T02:04:33.236Z,99678.83
2022-08-10T02:07:08.641Z,99675.31
2022-08-10T02:09:44.917Z,99666.55
2022-08-10T02:12:20.706Z,99669.19
2022-08-10T02:14:57.437Z,99664.78
2022-08-10T02:17:58.287Z,99674.45
2022-08-10T02:20:14.226Z,99676.17
2022-08-10T02:22:49.905Z,99676.19
2022-08-10T02:25:41.476Z,99681.44
2022-08-10T02:28:01.630Z,99682.33
2022-08-10T02:30:36.614Z,99692.86
2022-08-10T02:33:11.052Z,99690.23
2022-08-10T02:35:54.427Z,99690.24
2022-08-10T02:38:58.712Z,99686.72
2022-08-10T02:45:12.620Z,99687.55
2022-08-10T02:45:22.694Z,99690.20
2022-08-10T02:46:14.497Z,99681.39
2022-08-10T02:48:50.800Z,99681.36
2022-08-10T02:52:06.381Z,99683.13
2022-08-10T02:54:04.688Z,99687.52
2022-08-10T02:56:41.873Z,99680.50
2022-08-10T02:59:17.672Z,99683.16
2022-08-10T03:01:55.008Z,99685.78
2022-08-10T03:04:54.916Z,99688.40
2022-08-10T03:07:09.271Z,99688.37
2022-08-10T03:09:44.569Z,99682.19
2022-08-10T03:12:46.733Z,99683.07
2022-08-10T03:15:01.291Z,99690.09
2022-08-10T03:17:41.270Z,99690.02
2022-08-10T03:20:36.533Z,99689.09
2022-08-10T03:22:58.609Z,99682.86
2022-08-10T03:25:33.594Z,99681.05
2022-08-10T03:28:48.415Z,99681.88
2022-08-10T03:31:43.108Z,99688.83
2022-08-10T03:34:33.604Z,99679.15
2022-08-10T03:36:54.442Z,99686.20
2022-08-10T03:39:27.785Z,99690.55
2022-08-10T03:42:06.202Z,99687.82
2022-08-10T03:44:47.390Z,99687.73
2022-08-10T03:47:21.575Z,99689.38
2022-08-10T03:49:56.812Z,99692.75
2022-08-10T03:52:32.939Z,99697.86
2022-08-10T03:55:07.582Z,99697.70
2022-08-10T03:57:49.443Z,99699.20
2022-08-10T04:00:21.714Z,99702.57
2022-08-10T04:02:58.405Z,99697.97
2022-08-10T04:05:38.430Z,99695.22
2022-08-10T04:08:08.343Z,99691.66
2022-08-10T04:10:41.516Z,99696.09
2022-08-10T04:13:15.041Z,99694.19
2022-08-10T04:15:49.386Z,99693.27
2022-08-10T04:18:22.911Z,99701.31
2022-08-10T04:20:59.089Z,99705.67
2022-08-10T04:23:35.167Z,99699.39
2022-08-10T04:26:12.314Z,99700.94
2022-08-10T04:28:46.042Z,99693.58
2022-08-10T04:31:20.946Z,99691.53
2022-08-10T04:33:57.364Z,99694.98
2022-08-10T04:36:32.577Z,99691.17
2022-08-10T04:39:07.067Z,99700.51
2022-08-10T04:41:46.171Z,99701.90
2022-08-10T04:44:22.731Z,99700.66
2022-08-10T04:47:01.899Z,99710.20
2022-08-10T04:49:56.111Z,99701.97
2022-08-10T04:52:10.359Z,99693.58
2022-08-10T04:54:44.656Z,99699.52
2022-08-10T04:57:17.883Z,99699.39
2022-08-10T04:59:52.472Z,99709.22
2022-08-10T05:02:31.456Z,99713.66
2022-08-10T05:05:02.427Z,99711.18
2022-08-10T05:07:37.486Z,99707.68
2022-08-10T05:10:13.475Z,99709.55
2022-08-10T05:12:47.171Z,99725.57
2022-08-10T05:15:22.150Z,99724.95
2022-08-10T05:18:03.177Z,99727.59
2022-08-10T05:20:30.495Z,99725.53
2022-08-10T05:23:04.346Z,99726.91
2022-08-10T05:25:38.418Z,99713.28
2022-08-10T05:28:12.021Z,99702.49
2022-08-10T05:30:45.641Z,99702.08
2022-08-10T05:33:18.775Z,99699.16
2022-08-10T05:35:58.124Z,99696.41
2022-08-10T05:38:29.036Z,99709.22
2022-08-10T05:41:02.953Z,99703.48
2022-08-10T05:43:36.648Z,99696.77
2022-08-10T05:46:16.948Z,99705.22
2022-08-10T05:48:56.558Z,99698.77
2022-08-10T05:51:28.102Z,99702.80
2022-08-10T05:54:06.515Z,99704.86
2022-08-10T05:56:56.259Z,99696.22
2022-08-10T06:03:15.307Z,99701.40
2022-08-10T06:06:24.792Z,99707.16
2022-08-10T06:15:50.666Z,99707.61
2022-08-10T06:18:43.810Z,99712.15
2022-08-10T06:24:30.226Z,99714.83
2022-08-10T06:27:15.570Z,99722.02
2022-08-10T07:41:54.665Z,99746.78
2022-08-10T07:48:24.852Z,99739.73
2022-08-10T07:51:02.301Z,99743.76
2022-08-10T07:53:38.643Z,99741.47
2022-08-10T07:56:58.702Z,99743.66
2022-08-10T08:04:19.798Z,99737.96
2022-08-10T08:07:02.319Z,99732.72
2022-08-10T08:09:57.082Z,99733.53
2022-08-10T08:12:42.577Z,99737.49
2022-08-10T08:24:07.659Z,99726.10
2022-08-10T08:24:46.359Z,99727.88
2022-08-10T08:27:32.030Z,99715.80
2022-08-10T08:30:27.065Z,99720.56
2022-08-10T08:33:00.130Z,99721.75
2022-08-10T08:35:38.959Z,99722.81
2022-08-10T08:38:42.241Z,99712.63
2022-08-10T08:42:09.780Z,99724.58
2022-08-10T08:45:00.611Z,99718.37
2022-08-10T08:48:06.469Z,99722.05
2022-08-10T08:50:57.337Z,99729.44
2022-08-10T08:54:01.901Z,99729.08
2022-08-10T08:59:20.596Z,99727.37
2022-08-10T09:02:36.557Z,99725.91
2022-08-10T09:05:32.252Z,99727.84
2022-08-10T09:08:50.302Z,99715.99
2022-08-10T09:53:42.487Z,99691.72
2022-08-10T09:56:28.978Z,99690.39
2022-08-10T09:59:59.016Z,99689.55
2022-08-10T10:01:48.402Z,99699.48
2022-08-10T10:04:27.557Z,99692.85
2022-08-10T10:07:05.833Z,99689.55
2022-08-10T10:09:40.901Z,99696.81
2022-08-10T10:12:19.411Z,99699.16
2022-08-10T10:15:24.887Z,99686.00
2022-08-10T10:18:11.871Z,99696.96
2022-08-10T10:20:48.649Z,99692.11
2022-08-10T10:23:26.480Z,99685.97
2022-08-10T10:26:08.420Z,99688.81
2022-08-10T10:29:19.754Z,99681.25
2022-08-10T10:31:23.044Z,99688.62
2022-08-10T10:34:01.600Z,99694.04
2022-08-10T10:36:36.586Z,99690.95
2022-08-10T10:39:11.931Z,99685.62
2022-08-10T10:41:55.873Z,99682.77
2022-08-10T10:44:50.874Z,99698.32
2022-08-10T10:47:38.170Z,99691.81
2022-08-10T10:50:17.011Z,99687.16
2022-08-10T10:53:17.553Z,99687.61
2022-08-10T10:56:14.822Z,99682.69
2022-08-10T11:01:47.023Z,99674.98
2022-08-10T11:04:27.608Z,99672.50
2022-08-10T11:07:05.313Z,99684.25
2022-08-10T11:10:06.030Z,99682.93
2022-08-10T11:12:23.261Z,99675.44
2022-08-10T11:17:50.402Z,99677.48
2022-08-10T11:20:50.670Z,99673.72
2022-08-10T11:23:26.111Z,99672.95
2022-08-10T11:26:02.222Z,99669.19
2022-08-10T11:28:38.341Z,99669.50
2022-08-10T11:31:40.610Z,99669.19
2022-08-10T11:35:15.311Z,99667.86
2022-08-10T11:42:06.516Z,99665.89
2022-08-10T11:44:01.057Z,99667.66
2022-08-10T11:46:52.779Z,99666.59
2022-08-10T11:49:32.735Z,99660.98
2022-08-10T11:52:45.041Z,99659.78
2022-08-10T11:56:13.548Z,99668.38
2022-08-10T12:04:28.903Z,99657.29
2022-08-10T12:24:25.653Z,99646.77
2022-08-10T12:27:02.156Z,99648.80
2022-08-10T12:29:39.477Z,99654.66
2022-08-10T12:32:25.520Z,99657.78
2022-08-10T12:34:59.141Z,99663.62
2022-08-10T12:37:37.303Z,99664.06
2022-08-10T12:43:12.812Z,99657.71
2022-08-10T12:45:37.789Z,99664.63
2022-08-10T12:48:15.192Z,99646.17
2022-08-10T12:50:53.661Z,99657.73
2022-08-10T12:53:37.240Z,99651.15
2022-08-10T12:56:10.641Z,99652.15
2022-08-10T12:58:58.014Z,99648.35
2022-08-10T13:01:20.601Z,99654.84
2022-08-10T13:04:21.423Z,99646.83
2022-08-10T13:06:38.618Z,99649.62
2022-08-10T13:09:15.877Z,99642.00
2022-08-10T13:12:39.015Z,99650.20
2022-08-10T13:14:50.151Z,99648.48
2022-08-10T13:17:38.648Z,99645.05
2022-08-10T13:20:13.695Z,99628.60
2022-08-10T13:22:52.207Z,99647.78
2022-08-10T13:25:29.534Z,99648.98
2022-08-10T13:28:35.340Z,99652.75
2022-08-10T13:30:50.628Z,99648.38
2022-08-10T13:34:38.813Z,99655.33
2022-08-10T13:36:02.069Z,99655.19
2022-08-10T13:38:35.972Z,99641.86
2022-08-10T13:41:10.700Z,99645.05
2022-08-10T13:43:53.800Z,99626.25
2022-08-10T13:46:27.962Z,99642.94
2022-08-10T13:49:04.169Z,99650.61
2022-08-10T13:51:56.623Z,99644.53
2022-08-10T13:54:18.188Z,99640.59
2022-08-10T13:56:53.398Z,99644.31
2022-08-10T14:00:36.004Z,99643.23
2022-08-10T14:02:07.232Z,99651.09
2022-08-10T14:48:59.024Z,99654.42
2022-08-10T14:51:44.145Z,99656.73
2022-08-10T14:54:17.738Z,99655.98
2022-08-10T14:56:55.041Z,99665.25
2022-08-10T15:00:25.095Z,99668.14
2022-08-10T15:02:38.351Z,99667.02
2022-08-10T15:04:52.020Z,99674.62
2022-08-10T15:07:34.816Z,99673.03
2022-08-10T15:10:12.090Z,99674.03
2022-08-10T15:12:48.659Z,99672.89
2022-08-10T15:15:28.034Z,99681.48
2022-08-10T15:18:13.763Z,99683.61
2022-08-10T15:20:47.223Z,99692.12
2022-08-10T15:23:32.921Z,99690.23
2022-08-10T15:26:13.667Z,99684.69
2022-08-10T15:29:23.518Z,99687.13
2022-08-10T15:31:38.140Z,99687.25
2022-08-10T15:34:30.074Z,99685.39
2022-08-10T15:37:39.600Z,99681.85
2022-08-10T15:40:26.080Z,99684.05
2022-08-10T15:42:49.418Z,99686.31
2022-08-10T15:45:21.078Z,99682.55
2022-08-10T15:48:02.987Z,99682.77
2022-08-10T15:50:40.172Z,99687.02
2022-08-10T15:53:17.583Z,99680.78
2022-08-10T15:58:41.593Z,99680.80
2022-08-10T16:02:13.157Z,99681.97
2022-08-10T16:04:09.308Z,99681.56
2022-08-10T16:06:46.495Z,99692.23
2022-08-10T16:10:21.906Z,99696.16
2022-08-10T16:12:02.405Z,99694.08
2022-08-10T16:14:40.735Z,99695.41
2022-08-10T16:17:15.682Z,99693.35
2022-08-10T16:19:54.714Z,99699.33
2022-08-10T16:22:37.637Z,99692.61
2022-08-10T16:25:18.468Z,99696.50
2022-08-10T16:27:53.412Z,99712.22
2022-08-10T16:30:27.624Z,99703.86
2022-08-10T16:33:03.599Z,99711.63
2022-08-10T16:35:41.532Z,99706.99
2022-08-10T16:38:19.125Z,99706.75
2022-08-10T16:40:55.285Z,99712.37
2022-08-10T16:43:41.751Z,99718.66
2022-08-10T16:46:27.065Z,99721.34
2022-08-10T16:49:08.123Z,99726.83
2022-08-10T16:51:56.268Z,99729.20
2022-08-10T16:54:50.128Z,99727.90
2022-08-10T16:57:42.471Z,99736.34
2022-08-10T17:00:37.102Z,99741.16
2022-08-10T17:04:06.364Z,99742.20
2022-08-10T17:06:52.479Z,99765.68
2022-08-10T17:09:28.819Z,99759.16
2022-08-10T17:12:23.864Z,99773.25
2022-08-10T17:15:17.631Z,99764.02
2022-08-10T17:18:06.720Z,99766.14
2022-08-10T17:20:48.562Z,99762.55
2022-08-10T17:23:23.342Z,99762.71
2022-08-10T17:26:00.079Z,99772.50
2022-08-10T17:28:37.367Z,99770.69
2022-08-10T17:31:39.758Z,99782.01
2022-08-10T17:33:54.739Z,99776.31
2022-08-10T17:36:34.779Z,99772.00
2022-08-10T17:39:11.576Z,99772.43
2022-08-10T17:41:55.366Z,99779.11
2022-08-10T17:44:29.342Z,99777.96
2022-08-10T17:47:10.833Z,99780.42
2022-08-10T17:49:43.659Z,99782.63
2022-08-10T17:52:17.169Z,99778.61
2022-08-10T17:57:39.435Z,99781.75
2022-08-10T18:00:15.590Z,99769.33
2022-08-10T18:02:54.451Z,99788.94
2022-08-10T18:05:29.648Z,99789.97
2022-08-10T18:08:06.410Z,99793.70
2022-08-10T18:10:43.079Z,99795.59
2022-08-10T18:13:19.397Z,99797.70
2022-08-10T18:15:53.779Z,99794.58
2022-08-10T18:18:29.881Z,99797.75
2022-08-10T18:21:09.272Z,99798.13
2022-08-10T18:23:50.598Z,99801.02
2022-08-10T18:26:33.363Z,99801.37
2022-08-10T18:29:10.142Z,99796.33
2022-08-10T18:31:45.990Z,99794.78
2022-08-10T18:34:22.365Z,99798.47
2022-08-10T18:36:57.809Z,99793.25
2022-08-10T18:39:34.896Z,99797.18
2022-08-10T18:42:14.620Z,99798.19
2022-08-10T18:44:51.167Z,99780.84
2022-08-10T18:47:41.414Z,99794.05
2022-08-10T18:50:20.076Z,99797.82
2022-08-10T18:52:57.054Z,99795.41
2022-08-10T18:56:08.442Z,99793.87
2022-08-10T19:01:51.201Z,99803.22
2022-08-10T19:04:51.618Z,99802.75
2022-08-10T19:07:39.996Z,99795.86
2022-08-10T19:10:33.425Z,99795.87
2022-08-10T19:13:14.425Z,99806.53
2022-08-10T19:15:54.559Z,99806.75
2022-08-10T19:18:34.621Z,99800.64
2022-08-10T19:21:12.817Z,99805.19
2022-08-10T19:23:52.351Z,99812.16
2022-08-10T19:26:44.341Z,99802.48
2022-08-10T19:30:10.303Z,99811.48
2022-08-10T19:32:17.862Z,99811.65
2022-08-10T19:34:56.413Z,99811.94
2022-08-10T19:40:46.716Z,99818.09
2022-08-10T19:44:01.357Z,99813.13
2022-08-10T19:48:01.297Z,99822.05
2022-08-10T19:50:21.855Z,99823.93
2022-08-10T19:53:03.085Z,99825.87
2022-08-10T19:55:41.229Z,99825.92
2022-08-10T19:58:19.337Z,99823.38
2022-08-10T20:00:57.709Z,99821.78
2022-08-10T20:03:37.024Z,99836.03
2022-08-10T20:08:59.574Z,99834.35
2022-08-10T20:11:46.195Z,99841.72
2022-08-10T20:14:22.087Z,99836.50
2022-08-10T20:16:55.955Z,99833.88
2022-08-10T20:19:53.596Z,99837.42
2022-08-10T20:22:10.415Z,99833.13
2022-08-10T20:24:48.277Z,99839.52
2022-08-10T20:28:14.584Z,99846.69
2022-08-10T20:30:03.780Z,99848.60
2022-08-10T20:32:39.211Z,99839.00
2022-08-10T20:35:15.361Z,99839.95
2022-08-10T20:38:04.048Z,99841.78
2022-08-10T20:40:32.392Z,99843.56
2022-08-10T20:46:08.336Z,99848.70
2022-08-10T20:48:38.632Z,99854.23
2022-08-10T20:54:01.190Z,99857.80
2022-08-10T20:56:40.819Z,99860.67
2022-08-10T20:59:28.957Z,99853.63
2022-08-10T21:02:11.143Z,99867.78
2022-08-10T21:04:41.549Z,99864.33
2022-08-10T21:07:43.981Z,99860.05
2022-08-10T21:10:04.122Z,99853.16
2022-08-10T21:12:51.671Z,99860.38
2022-08-10T21:15:32.113Z,99864.81
2022-08-10T21:18:35.517Z,99864.81
2022-08-10T21:21:21.860Z,99857.83
2022-08-10T21:23:59.181Z,99853.48
2022-08-10T21:26:40.162Z,99861.52
2022-08-10T21:29:21.505Z,99864.20
2022-08-10T21:32:06.940Z,99859.78
2022-08-10T21:35:07.915Z,99854.51
2022-08-10T21:37:45.168Z,99857.22
2022-08-10T21:41:17.833Z,99860.79
2022-08-10T21:43:58.902Z,99861.70
2022-08-10T21:46:55.394Z,99857.34
2022-08-10T21:49:52.086Z,99865.31
2022-08-10T21:52:53.769Z,99862.70
2022-08-10T21:55:57.154Z,99866.30
2022-08-10T21:58:38.665Z,99872.50
2022-08-10T22:01:39.762Z,99873.43
2022-08-10T22:04:25.857Z,99876.97
2022-08-10T22:07:20.175Z,99874.38
2022-08-10T22:10:14.085Z,99872.69
2022-08-10T22:13:11.290Z,99878.87
2022-08-10T22:16:10.769Z,99885.92
2022-08-10T22:19:02.742Z,99882.43
2022-08-10T22:21:59.982Z,99878.94
2022-08-10T22:25:02.005Z,99876.34
2022-08-10T22:27:55.952Z,99877.24
2022-08-10T22:31:22.867Z,99872.89
2022-08-10T22:33:49.570Z,99872.03
2022-08-10T22:37:07.375Z,99872.91
2022-08-10T22:40:12.781Z,99880.00
2022-08-10T22:43:10.923Z,99866.88
2022-08-10T22:45:57.142Z,99866.92
2022-08-10T22:48:50.315Z,99863.45
2022-08-10T22:51:27.611Z,99868.75
2022-08-10T22:54:30.752Z,99879.31
2022-08-10T22:57:14.643Z,99879.31
2022-08-10T22:59:49.473Z,99876.70
2022-08-10T23:05:13.863Z,99867.06
2022-08-10T23:07:52.821Z,99878.52
2022-08-10T23:10:29.349Z,99853.98
2022-08-10T23:13:05.755Z,99885.59
2022-08-10T23:15:59.520Z,99889.13
2022-08-10T23:18:53.489Z,99884.73
2022-08-10T23:21:47.685Z,99893.50
2022-08-10T23:24:03.515Z,99896.16
2022-08-10T23:26:37.951Z,99891.81
2022-08-10T23:29:16.095Z,99893.61
2022-08-10T23:32:06.564Z,99897.11
2022-08-10T23:34:30.566Z,99893.59
2022-08-10T23:37:05.809Z,99893.61
2022-08-10T23:39:41.605Z,99887.48
2022-08-10T23:42:17.568Z,99895.42
2022-08-10T23:44:53.632Z,99892.78
2022-08-10T23:47:29.850Z,99884.91
2022-08-10T23:50:12.832Z,99888.44
2022-08-10T23:52:46.983Z,99888.43
2022-08-10T23:55:25.620Z,99896.33
2022-08-10T23:58:01.789Z,99900.74
